Indianapolis, Indiana
Traffic Map
Current Weather Conditions
Indianapolis, Indiana
Clear
Clear
71°
Feels Like: 71°
Wind Chill: 71° Ceiling: Unl
Heat Index: 71° Visibility: 10mi
Dew Point: 66° Wind: 7mph
Humidity: 84% Direction: 220° (SW)
Pressure: 29.98in Gusts: 0mph
Raw Report DataKIND 040954Z 22006KT 10SM CLR 22/19 A2998 RMK AO2 SLP144 T02170189
Traffic Incident Summary
Active as of:
Severity:
Category:
InformationThere was an issue retrieving the traffic information for this location. Please try a different location or try again shortly.
Advertisements
Track Severe Weather on mobile